createdAt,value
2018-08-09T00:00:06.942Z,20.72
2018-08-09T00:02:11.805Z,20.82
2018-08-09T00:04:16.622Z,20.86
2018-08-09T00:06:21.391Z,20.84
2018-08-09T00:08:27.059Z,20.86
2018-08-09T00:10:31.999Z,20.90
2018-08-09T00:12:36.917Z,20.89
2018-08-09T00:14:41.804Z,20.86
2018-08-09T00:16:46.692Z,20.82
2018-08-09T00:18:51.460Z,20.80
2018-08-09T00:20:56.598Z,20.76
2018-08-09T00:23:01.552Z,20.82
2018-08-09T00:25:07.236Z,20.84
2018-08-09T00:27:12.175Z,20.82
2018-08-09T00:29:16.977Z,20.76
2018-08-09T00:31:21.669Z,20.84
2018-08-09T00:33:26.596Z,20.82
2018-08-09T00:35:31.363Z,20.78
2018-08-09T00:37:36.130Z,20.78
2018-08-09T00:39:41.045Z,20.79
2018-08-09T00:41:45.932Z,20.77
2018-08-09T00:43:50.703Z,20.72
2018-08-09T00:45:55.576Z,20.70
2018-08-09T00:48:00.537Z,20.71
2018-08-09T00:50:05.937Z,20.66
2018-08-09T00:52:10.762Z,20.65
2018-08-09T00:54:15.572Z,20.66
2018-08-09T00:56:20.270Z,20.68
2018-08-09T00:58:25.054Z,20.66
2018-08-09T01:00:29.780Z,20.65
2018-08-09T01:02:34.702Z,20.70
2018-08-09T01:04:39.627Z,20.65
2018-08-09T01:06:44.585Z,20.62
2018-08-09T01:08:54.648Z,20.61
2018-08-09T01:10:59.534Z,20.65
2018-08-09T01:13:05.018Z,20.69
2018-08-09T01:15:09.837Z,20.71
2018-08-09T01:17:14.797Z,20.74
2018-08-09T01:19:20.366Z,20.74
2018-08-09T01:21:25.224Z,20.79
2018-08-09T01:23:30.032Z,20.86
2018-08-09T01:25:35.675Z,20.87
2018-08-09T01:27:40.402Z,20.87
2018-08-09T01:29:45.170Z,20.89
2018-08-09T01:31:49.942Z,20.87
2018-08-09T01:33:54.808Z,20.86
2018-08-09T01:35:59.654Z,20.83
2018-08-09T01:38:04.493Z,20.78
2018-08-09T01:40:09.425Z,20.82
2018-08-09T01:42:30.841Z,20.79
2018-08-09T01:44:35.677Z,20.76
2018-08-09T01:46:40.538Z,20.73
2018-08-09T01:48:45.374Z,20.69
2018-08-09T01:50:50.093Z,20.61
2018-08-09T01:52:55.062Z,20.55
2018-08-09T01:54:59.900Z,20.50
2018-08-09T01:57:05.297Z,20.44
2018-08-09T01:59:10.181Z,20.38
2018-08-09T02:01:15.241Z,20.34
2018-08-09T02:03:19.976Z,20.31
2018-08-09T02:05:24.792Z,20.27
2018-08-09T02:07:29.551Z,20.22
2018-08-09T02:09:34.973Z,20.19
2018-08-09T02:11:39.763Z,20.13
2018-08-09T02:13:44.863Z,20.18
2018-08-09T02:15:49.687Z,20.10
2018-08-09T02:17:55.075Z,20.10
2018-08-09T02:19:59.913Z,20.09
2018-08-09T02:22:04.711Z,20.06
2018-08-09T02:24:09.773Z,20.08
2018-08-09T02:26:15.025Z,20.03
2018-08-09T02:28:19.888Z,19.99
2018-08-09T02:30:24.663Z,20.02
2018-08-09T02:32:29.410Z,20.08
2018-08-09T02:34:34.154Z,20.07
2018-08-09T02:36:38.936Z,20.17
2018-08-09T02:38:43.608Z,20.18
2018-08-09T02:40:48.716Z,20.24
2018-08-09T02:42:53.454Z,20.25
2018-08-09T02:44:58.238Z,20.24
2018-08-09T02:47:03.006Z,20.13
2018-08-09T02:49:07.754Z,20.17
2018-08-09T02:51:12.477Z,20.14
2018-08-09T02:53:17.194Z,20.15
2018-08-09T02:55:21.890Z,20.14
2018-08-09T02:57:26.612Z,20.03
2018-08-09T02:59:31.492Z,20.09
2018-08-09T03:01:36.198Z,20.09
2018-08-09T03:03:40.927Z,20.07
2018-08-09T03:05:45.674Z,20.06
2018-08-09T03:07:51.218Z,20.12
2018-08-09T03:09:55.985Z,20.12
2018-08-09T03:12:00.744Z,20.17
2018-08-09T03:14:05.658Z,20.19
2018-08-09T03:16:10.499Z,20.17
2018-08-09T03:18:15.438Z,20.15
2018-08-09T03:20:20.168Z,20.27
2018-08-09T03:22:24.928Z,20.24
2018-08-09T03:24:29.888Z,19.83
2018-08-09T03:26:34.624Z,20.25
2018-08-09T03:28:39.429Z,20.28
2018-08-09T03:30:44.154Z,20.20
2018-08-09T03:32:49.167Z,20.18
2018-08-09T03:34:53.922Z,20.19
2018-08-09T03:36:58.662Z,20.23
2018-08-09T03:39:03.638Z,20.19
2018-08-09T03:41:08.820Z,20.20
2018-08-09T03:43:13.655Z,20.22
2018-08-09T03:45:18.496Z,20.32
2018-08-09T03:47:23.333Z,20.34
2018-08-09T03:49:28.123Z,20.44
2018-08-09T03:51:33.076Z,20.53
2018-08-09T03:53:37.908Z,20.58
2018-08-09T03:55:42.722Z,20.59
2018-08-09T03:57:47.651Z,20.63
2018-08-09T03:59:56.584Z,20.60
2018-08-09T04:02:01.426Z,20.63
2018-08-09T04:04:06.488Z,20.66
2018-08-09T04:06:11.197Z,20.56
2018-08-09T04:08:15.999Z,20.69
2018-08-09T04:10:22.647Z,20.71
2018-08-09T04:12:27.496Z,20.69
2018-08-09T04:14:32.455Z,20.69
2018-08-09T04:16:37.145Z,20.67
2018-08-09T04:18:41.915Z,20.65
2018-08-09T04:20:47.285Z,20.63
2018-08-09T04:22:52.138Z,20.28
2018-08-09T04:24:57.902Z,20.17
2018-08-09T04:27:02.743Z,20.32
2018-08-09T04:29:09.977Z,20.49
2018-08-09T04:31:15.627Z,20.48
2018-08-09T04:33:20.470Z,20.53
2018-08-09T04:35:25.398Z,20.55
2018-08-09T04:37:30.302Z,20.64
2018-08-09T04:39:35.045Z,20.66
2018-08-09T04:41:39.791Z,20.72
2018-08-09T04:43:44.621Z,20.72
2018-08-09T04:45:49.458Z,20.77
2018-08-09T04:47:54.294Z,20.37
2018-08-09T04:49:59.131Z,20.82
2018-08-09T04:52:03.995Z,20.83
2018-08-09T04:54:08.849Z,20.89
2018-08-09T04:56:13.772Z,20.88
2018-08-09T04:58:18.623Z,20.87
2018-08-09T05:00:23.414Z,20.89
2018-08-09T05:02:28.339Z,20.96
2018-08-09T05:04:33.145Z,21.02
2018-08-09T05:06:37.994Z,21.04
2018-08-09T05:08:42.970Z,21.07
2018-08-09T05:10:47.681Z,21.10
2018-08-09T05:12:52.702Z,21.09
2018-08-09T05:14:57.512Z,21.07
2018-08-09T05:17:02.230Z,21.10
2018-08-09T05:19:06.986Z,21.13
2018-08-09T05:21:11.737Z,21.13
2018-08-09T05:23:16.718Z,21.11
2018-08-09T05:25:21.448Z,21.14
2018-08-09T05:27:26.333Z,21.12
2018-08-09T05:29:31.918Z,21.13
2018-08-09T05:31:38.822Z,21.18
2018-08-09T05:33:44.099Z,21.26
2018-08-09T05:35:48.959Z,21.30
2018-08-09T05:37:53.784Z,21.32
2018-08-09T05:39:58.565Z,21.31
2018-08-09T05:42:03.314Z,21.30
2018-08-09T05:44:08.049Z,21.19
2018-08-09T05:46:12.801Z,21.20
2018-08-09T05:48:17.663Z,21.16
2018-08-09T05:50:22.494Z,21.13
2018-08-09T05:52:27.489Z,21.16
2018-08-09T05:54:32.435Z,21.18
2018-08-09T05:56:37.234Z,21.22
2018-08-09T05:58:46.197Z,21.16
2018-08-09T06:00:51.222Z,21.28
2018-08-09T06:02:56.185Z,21.36
2018-08-09T06:05:01.129Z,21.46
2018-08-09T06:07:06.062Z,21.59
2018-08-09T06:09:12.384Z,21.73
2018-08-09T06:11:17.311Z,21.87
2018-08-09T06:13:22.310Z,22.01
2018-08-09T06:15:27.525Z,22.11
2018-08-09T06:17:32.497Z,22.20
2018-08-09T06:19:37.348Z,22.21
2018-08-09T06:21:42.406Z,22.41
2018-08-09T06:23:47.295Z,22.40
2018-08-09T06:25:52.021Z,22.40
2018-08-09T06:27:57.081Z,22.30
2018-08-09T06:30:01.921Z,22.38
2018-08-09T06:32:07.140Z,22.36
2018-08-09T06:34:11.942Z,22.27
2018-08-09T06:36:16.843Z,22.29
2018-08-09T06:38:21.716Z,22.36
2018-08-09T06:40:26.643Z,22.29
2018-08-09T06:42:31.487Z,22.20
2018-08-09T06:44:36.218Z,22.14
2018-08-09T06:46:43.903Z,22.12
2018-08-09T06:48:48.941Z,22.28
2018-08-09T06:50:53.785Z,22.43
2018-08-09T06:52:59.425Z,22.45
2018-08-09T06:55:04.766Z,22.34
2018-08-09T06:57:09.753Z,22.52
2018-08-09T06:59:14.837Z,22.68
2018-08-09T07:01:19.734Z,22.63
2018-08-09T07:03:24.757Z,22.69
2018-08-09T07:05:29.713Z,22.72
2018-08-09T07:07:34.679Z,22.41
2018-08-09T07:09:40.002Z,23.01
2018-08-09T07:11:44.891Z,23.21
2018-08-09T07:13:50.032Z,23.37
2018-08-09T07:15:54.989Z,23.40
2018-08-09T07:18:00.224Z,23.41
2018-08-09T07:20:07.353Z,23.47
2018-08-09T07:22:12.295Z,23.59
2018-08-09T07:24:17.372Z,23.69
2018-08-09T07:26:22.548Z,23.73
2018-08-09T07:28:27.655Z,23.81
2018-08-09T07:30:32.984Z,23.87
2018-08-09T07:32:37.900Z,23.95
2018-08-09T07:34:42.824Z,24.10
2018-08-09T07:36:47.645Z,23.94
2018-08-09T07:38:52.484Z,24.00
2018-08-09T07:40:57.214Z,24.19
2018-08-09T07:43:02.015Z,24.16
2018-08-09T07:45:09.094Z,24.14
2018-08-09T07:47:13.880Z,24.15
2018-08-09T07:49:18.552Z,24.18
2018-08-09T07:51:23.497Z,24.24
2018-08-09T07:53:28.431Z,24.30
2018-08-09T07:55:33.297Z,24.37
2018-08-09T07:57:38.470Z,24.41
2018-08-09T07:59:46.205Z,24.51
2018-08-09T08:01:50.992Z,24.70
2018-08-09T08:03:55.945Z,24.66
2018-08-09T08:06:00.822Z,24.61
2018-08-09T08:08:05.721Z,24.48
2018-08-09T08:10:11.361Z,24.53
2018-08-09T08:12:16.446Z,24.62
2018-08-09T08:14:21.977Z,24.41
2018-08-09T08:16:26.915Z,24.42
2018-08-09T08:18:31.935Z,24.75
2018-08-09T08:20:36.839Z,24.73
2018-08-09T08:22:41.765Z,24.68
2018-08-09T08:24:46.545Z,24.70
2018-08-09T08:26:51.776Z,24.69
2018-08-09T08:28:56.559Z,24.46
2018-08-09T08:31:01.337Z,24.60
2018-08-09T08:33:06.600Z,24.59
2018-08-09T08:35:12.042Z,24.58
2018-08-09T08:37:16.846Z,24.77
2018-08-09T08:39:22.864Z,24.91
2018-08-09T08:41:27.793Z,25.08
2018-08-09T08:43:32.581Z,25.03
2018-08-09T08:45:37.511Z,25.17
2018-08-09T08:47:42.915Z,25.21
2018-08-09T08:49:47.889Z,25.34
2018-08-09T08:51:53.597Z,25.38
2018-08-09T08:53:58.502Z,25.43
2018-08-09T08:56:03.334Z,25.30
2018-08-09T08:58:08.862Z,25.27
2018-08-09T09:00:14.619Z,25.20
2018-08-09T09:02:19.315Z,25.29
2018-08-09T09:04:24.245Z,25.30
2018-08-09T09:06:29.022Z,25.18
2018-08-09T09:08:33.860Z,25.29
2018-08-09T09:10:39.920Z,25.36
2018-08-09T09:12:44.758Z,25.36
2018-08-09T09:14:50.527Z,25.46
2018-08-09T09:16:55.535Z,25.76
2018-08-09T09:19:00.898Z,25.96
2018-08-09T09:21:05.824Z,25.91
2018-08-09T09:23:10.587Z,25.83
2018-08-09T09:25:15.401Z,26.27
2018-08-09T09:27:20.201Z,26.38
2018-08-09T09:29:25.772Z,26.41
2018-08-09T09:31:31.674Z,26.98
2018-08-09T09:33:36.453Z,27.03
2018-08-09T09:35:41.204Z,27.02
2018-08-09T09:37:46.002Z,27.14
2018-08-09T09:39:50.749Z,26.97
2018-08-09T09:41:55.521Z,26.82
2018-08-09T09:44:00.289Z,26.60
2018-08-09T09:46:05.090Z,26.43
2018-08-09T09:48:09.933Z,26.53
2018-08-09T09:50:18.226Z,26.60
2018-08-09T09:52:23.035Z,26.81
2018-08-09T09:54:27.773Z,27.24
2018-08-09T09:56:32.928Z,27.33
2018-08-09T09:58:37.991Z,27.16
2018-08-09T10:00:49.132Z,27.41
2018-08-09T10:02:55.404Z,27.38
2018-08-09T10:05:00.261Z,27.22
2018-08-09T10:07:05.288Z,27.19
2018-08-09T10:09:12.268Z,27.24
2018-08-09T10:11:17.052Z,27.36
2018-08-09T10:13:21.984Z,27.18
2018-08-09T10:15:27.003Z,27.28
2018-08-09T10:17:31.903Z,27.51
2018-08-09T10:19:36.706Z,27.13
2018-08-09T10:21:42.015Z,27.46
2018-08-09T10:23:46.767Z,27.59
2018-08-09T10:25:52.078Z,27.80
2018-08-09T10:27:59.051Z,27.81
2018-08-09T10:30:03.984Z,27.84
2018-08-09T10:32:08.729Z,28.07
2018-08-09T10:34:13.523Z,28.30
2018-08-09T10:36:18.245Z,28.20
2018-08-09T10:38:23.010Z,28.37
2018-08-09T10:40:27.803Z,28.27
2018-08-09T10:42:32.614Z,28.42
2018-08-09T10:44:37.416Z,28.49
2018-08-09T10:46:42.855Z,28.57
2018-08-09T10:48:47.818Z,28.98
2018-08-09T10:50:52.725Z,29.34
2018-08-09T10:52:57.468Z,29.48
2018-08-09T10:55:02.402Z,29.68
2018-08-09T10:57:07.524Z,29.85
2018-08-09T10:59:12.269Z,30.02
2018-08-09T11:01:17.180Z,30.47
2018-08-09T11:03:22.075Z,30.40
2018-08-09T11:05:27.625Z,30.47
2018-08-09T11:07:32.465Z,30.28
2018-08-09T11:09:38.606Z,30.23
2018-08-09T11:11:43.396Z,30.20
2018-08-09T11:13:54.183Z,30.46
2018-08-09T11:15:59.836Z,30.66
2018-08-09T11:18:05.451Z,30.84
2018-08-09T11:20:10.393Z,30.60
2018-08-09T11:22:15.155Z,30.92
2018-08-09T11:24:20.295Z,30.56
2018-08-09T11:26:25.255Z,30.86
2018-08-09T11:28:30.750Z,31.06
2018-08-09T11:30:36.646Z,31.04
2018-08-09T11:32:41.489Z,30.91
2018-08-09T11:34:46.632Z,31.04
2018-08-09T11:36:51.527Z,31.04
2018-08-09T11:38:56.391Z,31.21
2018-08-09T11:41:01.114Z,30.98
2018-08-09T11:43:05.999Z,31.11
2018-08-09T11:45:10.822Z,31.11
2018-08-09T11:47:15.684Z,31.08
2018-08-09T11:49:21.320Z,31.27
2018-08-09T11:51:26.652Z,31.15
2018-08-09T11:53:31.561Z,31.21
2018-08-09T11:55:36.664Z,31.37
2018-08-09T11:57:46.668Z,31.60
2018-08-09T11:59:53.295Z,31.50
2018-08-09T12:01:59.027Z,31.37
2018-08-09T12:04:04.014Z,31.12
2018-08-09T12:06:08.892Z,31.03
2018-08-09T12:08:13.629Z,30.60
2018-08-09T12:10:19.596Z,30.89
2018-08-09T12:12:24.437Z,30.95
2018-08-09T12:14:29.320Z,30.85
2018-08-09T12:16:34.784Z,30.73
2018-08-09T12:18:40.096Z,30.66
2018-08-09T12:20:45.118Z,30.70
2018-08-09T12:22:49.877Z,30.80
2018-08-09T12:24:54.654Z,30.74
2018-08-09T12:27:00.632Z,30.64
2018-08-09T12:29:05.952Z,30.28
2018-08-09T12:31:10.733Z,30.09
2018-08-09T12:33:15.939Z,30.25
2018-08-09T12:35:21.934Z,30.22
2018-08-09T12:37:27.364Z,30.17
2018-08-09T12:39:32.269Z,29.69
2018-08-09T12:41:37.389Z,29.90
2018-08-09T12:43:42.368Z,29.89
2018-08-09T12:45:47.501Z,29.78
2018-08-09T12:47:52.317Z,29.76
2018-08-09T12:49:57.178Z,29.54
2018-08-09T12:52:02.171Z,29.74
2018-08-09T12:54:06.944Z,29.79
2018-08-09T12:56:11.620Z,29.50
2018-08-09T12:58:16.655Z,29.35
2018-08-09T13:00:21.570Z,29.20
2018-08-09T13:02:27.301Z,29.25
2018-08-09T13:04:32.093Z,28.98
2018-08-09T13:06:36.863Z,28.72
2018-08-09T13:08:42.691Z,28.66
2018-08-09T13:10:47.655Z,28.83
2018-08-09T13:12:52.561Z,28.75
2018-08-09T13:14:57.877Z,28.75
2018-08-09T13:17:02.764Z,28.88
2018-08-09T13:19:07.841Z,28.68
2018-08-09T13:21:12.655Z,28.78
2018-08-09T13:23:17.494Z,28.98
2018-08-09T13:25:22.363Z,28.97
2018-08-09T13:27:27.348Z,28.94
2018-08-09T13:29:32.444Z,29.07
2018-08-09T13:31:37.456Z,29.42
2018-08-09T13:33:42.377Z,29.42
2018-08-09T13:35:48.371Z,29.37
2018-08-09T13:37:53.217Z,29.07
2018-08-09T13:39:57.992Z,29.57
2018-08-09T13:42:02.885Z,29.47
2018-08-09T13:44:08.310Z,29.45
2018-08-09T13:46:13.325Z,29.50
2018-08-09T13:48:18.095Z,29.29
2018-08-09T13:50:22.976Z,29.66
2018-08-09T13:52:27.965Z,29.44
2018-08-09T13:54:33.160Z,29.57
2018-08-09T13:56:38.039Z,29.35
2018-08-09T13:58:43.286Z,29.46
2018-08-09T14:00:50.083Z,29.68
2018-08-09T14:02:55.020Z,29.40
2018-08-09T14:05:01.188Z,29.40
2018-08-09T14:07:06.457Z,29.17
2018-08-09T14:09:13.968Z,29.11
2018-08-09T14:11:19.001Z,28.85
2018-08-09T14:13:23.842Z,28.92
2018-08-09T14:15:28.667Z,29.06
2018-08-09T14:17:34.242Z,28.99
2018-08-09T14:19:39.131Z,28.93
2018-08-09T14:21:44.030Z,28.91
2018-08-09T14:23:48.825Z,28.81
2018-08-09T14:25:53.613Z,28.47
2018-08-09T14:27:59.706Z,28.61
2018-08-09T14:30:05.338Z,28.42
2018-08-09T14:32:10.246Z,28.38
2018-08-09T14:34:15.829Z,28.52
2018-08-09T14:36:20.619Z,28.36
2018-08-09T14:38:25.513Z,28.32
2018-08-09T14:40:30.827Z,28.27
2018-08-09T14:42:35.827Z,28.15
2018-08-09T14:44:40.601Z,27.98
2018-08-09T14:46:45.444Z,27.89
2018-08-09T14:48:50.449Z,28.12
2018-08-09T14:50:55.387Z,28.17
2018-08-09T14:53:00.948Z,27.83
2018-08-09T14:55:07.371Z,27.85
2018-08-09T14:57:12.416Z,27.76
2018-08-09T14:59:17.235Z,27.63
2018-08-09T15:01:21.980Z,27.60
2018-08-09T15:03:27.183Z,27.51
2018-08-09T15:05:32.575Z,27.42
2018-08-09T15:07:37.470Z,27.35
2018-08-09T15:09:42.717Z,27.31
2018-08-09T15:11:48.786Z,27.31
2018-08-09T15:13:53.628Z,27.21
2018-08-09T15:15:58.647Z,27.18
2018-08-09T15:18:03.479Z,27.23
2018-08-09T15:20:12.557Z,27.17
2018-08-09T15:22:17.436Z,27.26
2018-08-09T15:24:22.255Z,27.35
2018-08-09T15:26:27.448Z,27.30
2018-08-09T15:28:32.314Z,27.25
2018-08-09T15:30:37.211Z,27.24
2018-08-09T15:32:42.903Z,27.32
2018-08-09T15:34:47.825Z,27.40
2018-08-09T15:36:54.829Z,27.34
2018-08-09T15:38:59.582Z,27.36
2018-08-09T15:41:04.671Z,27.49
2018-08-09T15:43:10.058Z,27.45
2018-08-09T15:45:16.584Z,27.37
2018-08-09T15:47:22.287Z,27.54
2018-08-09T15:49:29.452Z,27.58
2018-08-09T15:51:35.117Z,27.59
2018-08-09T15:53:42.135Z,27.66
2018-08-09T15:55:47.080Z,27.70
2018-08-09T15:57:51.976Z,27.73
2018-08-09T15:59:57.939Z,27.71
2018-08-09T16:02:02.797Z,27.62
2018-08-09T16:04:07.855Z,27.67
2018-08-09T16:06:13.803Z,27.64
2018-08-09T16:08:18.780Z,27.63
2018-08-09T16:10:24.391Z,27.81
2018-08-09T16:12:29.187Z,27.75
2018-08-09T16:14:34.592Z,27.75
2018-08-09T16:16:39.549Z,27.79
2018-08-09T16:18:44.822Z,27.49
2018-08-09T16:20:49.790Z,27.45
2018-08-09T16:22:54.810Z,27.59
2018-08-09T16:24:59.713Z,27.59
2018-08-09T16:27:04.753Z,27.56
2018-08-09T16:29:09.942Z,27.30
2018-08-09T16:31:15.909Z,27.34
2018-08-09T16:33:20.595Z,27.44
2018-08-09T16:35:25.537Z,27.46
2018-08-09T16:37:30.757Z,27.50
2018-08-09T16:39:35.653Z,27.68
2018-08-09T16:41:40.848Z,27.54
2018-08-09T16:43:45.742Z,27.55
2018-08-09T16:45:50.486Z,27.48
2018-08-09T16:47:56.519Z,27.62
2018-08-09T16:50:01.426Z,27.59
2018-08-09T16:52:07.228Z,27.65
2018-08-09T16:54:12.027Z,27.43
2018-08-09T16:56:16.862Z,27.40
2018-08-09T16:58:21.728Z,27.37
2018-08-09T17:00:26.698Z,27.91
2018-08-09T17:02:32.515Z,27.96
2018-08-09T17:04:37.858Z,27.77
2018-08-09T17:06:43.017Z,27.98
2018-08-09T17:08:47.891Z,28.23
2018-08-09T17:10:52.797Z,28.64
2018-08-09T17:12:58.617Z,28.61
2018-08-09T17:15:03.553Z,28.47
2018-08-09T17:17:08.354Z,28.25
2018-08-09T17:19:13.341Z,28.07
2018-08-09T17:21:19.434Z,27.93
2018-08-09T17:23:24.223Z,27.73
2018-08-09T17:25:39.339Z,27.47
2018-08-09T17:27:45.398Z,27.32
2018-08-09T17:29:50.266Z,27.29
2018-08-09T17:31:55.494Z,27.23
2018-08-09T17:34:00.375Z,27.27
2018-08-09T17:36:05.185Z,26.99
2018-08-09T17:38:10.109Z,26.90
2018-08-09T17:40:31.507Z,26.54
2018-08-09T17:42:37.025Z,26.52
2018-08-09T17:44:41.893Z,26.46
2018-08-09T17:46:46.913Z,26.48
2018-08-09T17:48:51.972Z,26.04
2018-08-09T17:50:56.834Z,25.96
2018-08-09T17:53:03.326Z,25.58
2018-08-09T17:55:11.937Z,24.72
2018-08-09T17:57:16.839Z,24.82
2018-08-09T17:59:21.709Z,24.71
2018-08-09T18:01:26.554Z,24.45
2018-08-09T18:03:31.492Z,24.32
2018-08-09T18:05:36.388Z,24.41
2018-08-09T18:07:41.199Z,24.27
2018-08-09T18:09:46.155Z,24.22
2018-08-09T18:11:50.958Z,24.02
2018-08-09T18:13:55.928Z,24.08
2018-08-09T18:16:00.896Z,24.09
2018-08-09T18:18:06.150Z,24.05
2018-08-09T18:22:53.117Z,24.04
2018-08-09T18:24:58.354Z,23.75
2018-08-09T18:27:03.797Z,23.64
2018-08-09T18:29:08.701Z,23.78
2018-08-09T18:31:13.527Z,23.79
2018-08-09T18:33:18.299Z,23.88
2018-08-09T18:35:23.145Z,23.52
2018-08-09T18:37:29.186Z,23.59
2018-08-09T18:39:34.046Z,23.49
2018-08-09T18:41:38.891Z,23.38
2018-08-09T18:43:43.915Z,23.39
2018-08-09T18:45:48.978Z,23.26
2018-08-09T18:47:53.910Z,23.18
2018-08-09T18:49:59.432Z,23.19
2018-08-09T18:52:04.961Z,23.33
2018-08-09T18:54:10.684Z,23.07
2018-08-09T18:56:15.936Z,23.02
2018-08-09T18:58:21.364Z,22.68
2018-08-09T19:00:28.489Z,23.02
2018-08-09T19:02:33.790Z,22.95
2018-08-09T19:04:38.897Z,22.95
2018-08-09T19:06:44.009Z,23.03
2018-08-09T19:08:49.196Z,22.96
2018-08-09T19:10:54.915Z,22.70
2018-08-09T19:13:00.078Z,22.70
2018-08-09T19:15:05.775Z,22.62
2018-08-09T19:17:10.788Z,22.81
2018-08-09T19:19:15.864Z,22.62
2018-08-09T19:21:21.862Z,22.56
2018-08-09T19:23:29.312Z,22.46
2018-08-09T19:25:36.279Z,22.46
2018-08-09T19:27:44.400Z,22.39
2018-08-09T19:29:50.901Z,22.36
2018-08-09T19:31:56.855Z,22.29
2018-08-09T19:34:02.518Z,22.54
2018-08-09T19:36:10.496Z,21.95
2018-08-09T19:38:18.568Z,22.41
2018-08-09T19:40:31.528Z,22.29
2018-08-09T19:42:41.108Z,22.26
2018-08-09T19:44:48.543Z,22.37
2018-08-09T19:46:56.637Z,22.19
2018-08-09T19:49:06.201Z,22.11
2018-08-09T19:51:15.589Z,22.12
2018-08-09T19:53:26.071Z,22.00
2018-08-09T19:55:36.174Z,21.56
2018-08-09T19:57:46.408Z,22.01
2018-08-09T19:59:55.367Z,21.98
2018-08-09T20:02:05.729Z,21.97
2018-08-09T20:04:14.874Z,21.98
2018-08-09T20:06:24.532Z,22.03
2018-08-09T20:08:34.198Z,21.94
2018-08-09T20:10:44.079Z,22.06
2018-08-09T20:12:54.579Z,21.80
2018-08-09T20:15:04.076Z,21.79
2018-08-09T20:17:12.969Z,21.75
2018-08-09T20:19:23.298Z,21.87
2018-08-09T20:21:34.105Z,21.79
2018-08-09T20:23:43.540Z,21.78
2018-08-09T20:25:53.733Z,21.74
2018-08-09T20:28:02.853Z,21.84
2018-08-09T20:30:14.698Z,21.59
2018-08-09T20:32:19.768Z,21.58
2018-08-09T20:34:25.463Z,21.63
2018-08-09T20:36:31.031Z,21.21
2018-08-09T20:38:36.597Z,21.23
2018-08-09T20:40:42.197Z,21.06
2018-08-09T20:42:53.995Z,20.89
2018-08-09T20:44:59.442Z,20.99
2018-08-09T20:47:05.849Z,20.81
2018-08-09T20:49:14.108Z,20.77
2018-08-09T20:51:21.431Z,20.83
2018-08-09T20:53:27.956Z,20.83
2018-08-09T20:55:34.372Z,20.81
2018-08-09T20:57:41.079Z,20.50
2018-08-09T20:59:48.520Z,20.58
2018-08-09T21:01:53.825Z,20.57
2018-08-09T21:04:33.628Z,20.47
2018-08-09T21:06:39.073Z,20.29
2018-08-09T21:08:45.073Z,20.24
2018-08-09T21:10:50.853Z,20.15
2018-08-09T21:12:56.476Z,19.88
2018-08-09T21:15:01.651Z,19.76
2018-08-09T21:17:06.966Z,19.78
2018-08-09T21:19:11.912Z,19.86
2018-08-09T21:21:16.953Z,19.72
2018-08-09T21:23:22.273Z,19.60
2018-08-09T21:25:27.769Z,19.70
2018-08-09T21:27:32.980Z,19.60
2018-08-09T21:29:38.153Z,19.61
2018-08-09T21:31:42.988Z,19.72
2018-08-09T21:33:48.292Z,19.43
2018-08-09T21:35:53.277Z,19.23
2018-08-09T21:37:58.413Z,19.53
2018-08-09T21:40:03.430Z,19.50
2018-08-09T21:42:08.549Z,19.59
2018-08-09T21:44:14.035Z,19.57
2018-08-09T21:46:18.934Z,19.54
2018-08-09T21:48:23.799Z,19.38
2018-08-09T21:50:28.791Z,19.42
2018-08-09T21:52:33.746Z,19.49
2018-08-09T21:54:38.744Z,19.52
2018-08-09T21:56:43.712Z,19.51
2018-08-09T21:58:48.644Z,19.34
2018-08-09T22:01:00.970Z,19.36
2018-08-09T22:03:06.238Z,19.15
2018-08-09T22:05:16.187Z,19.31
2018-08-09T22:07:26.243Z,19.17
2018-08-09T22:09:36.116Z,19.23
2018-08-09T22:11:46.019Z,19.05
2018-08-09T22:13:56.214Z,18.97
2018-08-09T22:16:06.021Z,18.73
2018-08-09T22:18:16.082Z,18.81
2018-08-09T22:20:26.116Z,18.89
2018-08-09T22:22:31.714Z,18.78
2018-08-09T22:24:36.593Z,18.71
2018-08-09T22:26:42.664Z,18.75
2018-08-09T22:28:47.786Z,18.73
2018-08-09T22:30:52.845Z,18.61
2018-08-09T22:32:57.993Z,18.61
2018-08-09T22:35:03.027Z,18.60
2018-08-09T22:37:07.840Z,18.76
2018-08-09T22:39:12.788Z,18.59
2018-08-09T22:41:17.643Z,18.69
2018-08-09T22:43:22.684Z,18.76
2018-08-09T22:45:27.728Z,18.63
2018-08-09T22:47:32.754Z,18.67
2018-08-09T22:49:37.838Z,18.73
2018-08-09T22:51:42.932Z,18.55
2018-08-09T22:53:47.908Z,18.55
2018-08-09T22:55:52.831Z,18.52
2018-08-09T22:57:57.859Z,18.57
2018-08-09T23:00:03.048Z,18.41
2018-08-09T23:02:08.102Z,18.45
2018-08-09T23:04:13.191Z,18.34
2018-08-09T23:06:18.100Z,18.37
2018-08-09T23:08:23.108Z,18.38
2018-08-09T23:10:28.090Z,18.28
2018-08-09T23:12:33.109Z,18.43
2018-08-09T23:14:38.155Z,18.48
2018-08-09T23:16:43.202Z,18.41
2018-08-09T23:18:48.211Z,18.52
2018-08-09T23:20:53.192Z,18.52
2018-08-09T23:22:58.299Z,18.43
2018-08-09T23:25:03.400Z,18.42
2018-08-09T23:27:08.405Z,18.36
2018-08-09T23:29:13.270Z,18.39
2018-08-09T23:31:18.235Z,18.30
2018-08-09T23:33:24.671Z,18.49
2018-08-09T23:35:29.811Z,18.64
2018-08-09T23:37:35.026Z,18.53
2018-08-09T23:39:40.077Z,18.49
2018-08-09T23:41:45.421Z,18.44
2018-08-09T23:43:50.220Z,18.57
2018-08-09T23:45:55.176Z,18.57
2018-08-09T23:48:00.202Z,18.76
2018-08-09T23:50:05.429Z,18.73
2018-08-09T23:52:10.382Z,18.55
2018-08-09T23:54:15.270Z,18.40
2018-08-09T23:56:20.185Z,18.49
2018-08-09T23:58:25.088Z,18.57
